Rimrock, AZ (86335)

4:57 PM MST on October 25, 2014 (GMT -0700)
Rimrock by the Post Office | Change Station
CLOSE
Current Station
Personal Weather Station
Location: Rimrock, AZ
Elevation: 3520 ft
Nearby Weather Stations

Elev 3520 ft 34.65 °N, 111.79 °W | Updated 1 second ago

Partly Cloudy
Partly Cloudy
82.4 °F
Feels Like 81 °F
N
9.0
Wind Variable Wind from SW
Gusts 18.0 mph

Today
High -- | Low -- °F
--% Chance of Precip.
Yesterday
High -- | Low -- °F
Precip. -- in
6:41 AM 5:40 PM
Waxing Crescent, 5% visible
Pressure 30.15 in
Visibility 10.0 miles
Clouds Scattered Clouds 8000 ft
Mostly Cloudy 9000 ft
Heat Index 81 °F
Dew Point 52 °F
Humidity 35%
Rainfall 0.00 in
Snow Depth Not available.
UV 0 out of 12
Pollen 4.50 out of 12
Air Quality Not available.
Flu Activity No Activity
METAR KSEZ 252335Z AUTO 18013G16KT 10SM SCT080 BKN090 26/06 A3015 RMK AO2

More Conditions Fewer Conditions

Pressure 30.15 in
Visibility 10.0 miles
Clouds Scattered Clouds 8000 ft
Mostly Cloudy 9000 ft
Heat Index 81 °F
Dew Point 52 °F
Humidity 35%
Rainfall 0.00 in
Snow Depth Not available.
UV 0 out of 12
Pollen 4.50 out of 12
Air Quality Not available.
Flu Activity No Activity
METAR KSEZ 252335Z AUTO 18013G16KT 10SM SCT080 BKN090 26/06 A3015 RMK AO2

More Conditions Fewer Conditions

10-Day Weather Forecast

Almanac

Astronomy

Oct. 25, 2014 Rise Set
Actual Time 6:41 AM MST 5:40 PM MST
Civil Twilight 6:15 AM MST 6:06 PM MST
Nautical Twilight 5:46 AM MST 6:35 PM MST
Astronomical Twilight 5:16 AM MST 7:05 PM MST
Moon 8:20 AM MST 7:09 PM MST
Length of Visible Light 11h 50m
Length of Day
10h 59m
Tomorrow will be 1m 58s shorter.
Waxing Crescent, 5% of the Moon is Illuminated
Today
Waxing Crescent
Oct 30
First Quarter
Nov 6
Full
Nov 14
Last Quarter
Nov 22
New

Today's Extremes

State Highs State Lows

Community

WunderPhotos

Upload Photos

1,765,034 photos uploaded!

Nearby

Snow Depth

Station Depth Elevation
Baker Butte 0 in 7300 ft
Baldy 1 in 9125 ft
Hannagan Meadows 0 in 9020 ft
Beaver Head 0 in 7990 ft

Earthquake Activity

City Distance Mag. Time & Date
No recent earthquake activity has been reported nearby.
Minimum magnitude displayed is 2.5.

Coastal Water Temperatures

Place Temperature
No Stations Reporting

Nearby Weather Stations